createdAt,value
2022-11-16T00:02:15.387Z,3.23
2022-11-16T00:05:01.801Z,3.00
2022-11-16T00:07:48.312Z,2.63
2022-11-16T00:10:36.220Z,3.47
2022-11-16T00:13:22.924Z,3.87
2022-11-16T00:16:14.314Z,4.17
2022-11-16T00:19:03.887Z,2.97
2022-11-16T00:21:50.909Z,4.10
2022-11-16T00:24:37.334Z,2.77
2022-11-16T00:27:25.109Z,3.97
2022-11-16T00:30:12.622Z,2.93
2022-11-16T00:33:01.771Z,2.63
2022-11-16T00:35:48.538Z,3.00
2022-11-16T00:38:35.616Z,2.40
2022-11-16T00:41:22.463Z,3.10
2022-11-16T00:44:10.878Z,4.37
2022-11-16T00:46:57.447Z,2.50
2022-11-16T00:49:43.995Z,3.23
2022-11-16T00:52:30.524Z,2.30
2022-11-16T00:55:17.219Z,2.40
2022-11-16T00:58:03.865Z,3.90
2022-11-16T01:00:52.008Z,2.87
2022-11-16T01:03:39.229Z,3.73
2022-11-16T01:06:26.127Z,5.33
2022-11-16T01:09:12.856Z,2.77
2022-11-16T01:12:12.499Z,2.87
2022-11-16T01:14:59.259Z,2.47
2022-11-16T01:17:47.346Z,2.60
2022-11-16T01:20:34.156Z,4.63
2022-11-16T01:23:20.526Z,3.07
2022-11-16T01:26:07.273Z,4.77
2022-11-16T01:28:53.721Z,2.97
2022-11-16T01:31:40.341Z,2.90
2022-11-16T01:34:28.249Z,3.03
2022-11-16T01:37:15.031Z,3.57
2022-11-16T01:40:01.524Z,2.43
2022-11-16T01:42:49.456Z,3.63
2022-11-16T01:45:41.163Z,4.53
2022-11-16T01:48:31.515Z,2.67
2022-11-16T01:51:20.280Z,4.00
2022-11-16T01:54:09.743Z,2.73
2022-11-16T01:56:58.173Z,4.97
2022-11-16T01:59:47.206Z,3.30
2022-11-16T02:02:34.192Z,3.73
2022-11-16T02:05:23.519Z,5.30
2022-11-16T02:08:40.958Z,2.40
2022-11-16T02:11:47.465Z,3.63
2022-11-16T02:14:48.936Z,3.00
2022-11-16T02:17:51.031Z,4.97
2022-11-16T02:20:53.351Z,3.37
2022-11-16T02:24:12.663Z,2.77
2022-11-16T02:27:34.925Z,3.30
2022-11-16T02:30:23.610Z,4.83
2022-11-16T02:33:14.465Z,5.30
2022-11-16T02:36:03.431Z,5.37
2022-11-16T02:38:55.511Z,3.83
2022-11-16T02:41:45.322Z,4.60
2022-11-16T02:44:35.290Z,3.63
2022-11-16T02:47:26.569Z,4.43
2022-11-16T02:50:18.055Z,4.07
2022-11-16T02:53:05.030Z,4.73
2022-11-16T02:55:51.900Z,4.43
2022-11-16T02:58:38.347Z,2.97
2022-11-16T03:01:31.631Z,5.10
2022-11-16T03:04:26.038Z,8.20
2022-11-16T03:07:16.272Z,3.43
2022-11-16T03:10:03.436Z,3.13
2022-11-16T03:12:49.263Z,3.67
2022-11-16T03:15:38.803Z,3.77
2022-11-16T03:18:29.011Z,3.33
2022-11-16T03:21:23.983Z,4.07
2022-11-16T03:24:11.257Z,4.80
2022-11-16T03:27:04.666Z,6.53
2022-11-16T03:30:01.536Z,3.80
2022-11-16T03:32:55.909Z,5.97
2022-11-16T03:35:49.380Z,4.57
2022-11-16T03:38:40.736Z,4.70
2022-11-16T03:41:30.263Z,3.90
2022-11-16T03:44:18.728Z,4.50
2022-11-16T03:47:05.852Z,4.47
2022-11-16T03:49:52.537Z,3.50
2022-11-16T03:52:39.376Z,4.43
2022-11-16T03:55:27.463Z,3.90
2022-11-16T03:58:14.227Z,3.50
2022-11-16T04:01:00.673Z,4.60
2022-11-16T04:03:47.576Z,4.07
2022-11-16T04:06:51.583Z,5.80
2022-11-16T04:09:55.408Z,7.03
2022-11-16T04:13:03.345Z,5.37
2022-11-16T04:16:07.399Z,5.33
2022-11-16T04:19:11.229Z,4.77
2022-11-16T04:22:19.999Z,7.37
2022-11-16T04:25:11.125Z,4.40
2022-11-16T04:28:13.923Z,4.40
2022-11-16T04:31:21.230Z,4.30
2022-11-16T04:34:25.199Z,4.07
2022-11-16T04:37:36.081Z,4.83
2022-11-16T04:40:24.306Z,3.77
2022-11-16T04:43:12.395Z,4.17
2022-11-16T04:46:16.323Z,3.57
2022-11-16T04:49:03.102Z,3.83
2022-11-16T04:51:49.538Z,5.03
2022-11-16T04:54:35.915Z,6.13
2022-11-16T04:57:22.347Z,4.63
2022-11-16T05:00:13.002Z,5.00
2022-11-16T05:03:01.548Z,4.60
2022-11-16T05:05:50.996Z,6.00
2022-11-16T05:08:37.269Z,7.53
2022-11-16T05:11:23.876Z,5.83
2022-11-16T05:14:10.755Z,6.17
2022-11-16T05:16:58.675Z,4.17
2022-11-16T05:20:03.372Z,4.97
2022-11-16T05:22:54.790Z,4.60
2022-11-16T05:25:41.575Z,4.63
2022-11-16T05:28:27.864Z,5.10
2022-11-16T05:31:14.283Z,6.77
2022-11-16T05:34:02.136Z,6.17
2022-11-16T05:36:48.857Z,5.53
2022-11-16T05:39:35.439Z,4.63
2022-11-16T05:42:22.254Z,7.03
2022-11-16T05:45:09.368Z,7.00
2022-11-16T05:47:56.125Z,8.37
2022-11-16T05:50:44.021Z,5.07
2022-11-16T05:53:30.870Z,6.60
2022-11-16T05:56:17.929Z,5.73
2022-11-16T05:59:04.613Z,8.53
2022-11-16T06:01:51.368Z,5.80
2022-11-16T06:04:38.057Z,6.90
2022-11-16T06:07:25.933Z,5.03
2022-11-16T06:10:12.864Z,5.47
2022-11-16T06:12:59.367Z,4.10
2022-11-16T06:15:52.300Z,4.47
2022-11-16T06:18:40.328Z,6.67
2022-11-16T06:21:26.953Z,6.93
2022-11-16T06:24:15.266Z,4.93
2022-11-16T06:27:01.967Z,7.17
2022-11-16T06:29:48.460Z,6.17
2022-11-16T06:32:34.960Z,4.83
2022-11-16T06:35:21.462Z,4.60
2022-11-16T06:38:08.154Z,5.20
2022-11-16T06:40:57.508Z,5.33
2022-11-16T06:43:44.047Z,6.37
2022-11-16T06:46:30.652Z,4.73
2022-11-16T06:49:17.107Z,6.70
2022-11-16T06:52:03.578Z,6.57
2022-11-16T06:54:49.971Z,7.03
2022-11-16T06:57:37.912Z,6.33
2022-11-16T07:00:24.771Z,8.60
2022-11-16T07:03:11.371Z,7.53
2022-11-16T07:05:58.216Z,5.30
2022-11-16T07:08:44.576Z,6.20
2022-11-16T07:11:31.051Z,5.47
2022-11-16T07:14:19.279Z,5.37
2022-11-16T07:17:09.471Z,6.23
2022-11-16T07:19:56.659Z,5.83
2022-11-16T07:22:43.160Z,5.73
2022-11-16T07:25:29.869Z,5.13
2022-11-16T07:28:16.666Z,7.33
2022-11-16T07:31:05.242Z,4.77
2022-11-16T07:33:52.889Z,5.17
2022-11-16T07:36:40.065Z,4.60
2022-11-16T07:39:26.585Z,6.30
2022-11-16T07:42:13.422Z,4.67
2022-11-16T07:45:00.005Z,5.70
2022-11-16T07:47:52.223Z,6.17
2022-11-16T07:50:38.874Z,4.50
2022-11-16T07:53:25.336Z,6.23
2022-11-16T07:56:13.130Z,4.17
2022-11-16T07:58:59.697Z,5.87
2022-11-16T08:01:48.243Z,5.77
2022-11-16T08:04:38.623Z,7.93
2022-11-16T08:07:25.160Z,4.33
2022-11-16T08:10:12.193Z,5.73
2022-11-16T08:12:58.882Z,8.07
2022-11-16T08:15:45.617Z,4.70
2022-11-16T08:18:32.999Z,5.13
2022-11-16T08:21:21.365Z,5.37
2022-11-16T08:24:08.702Z,4.23
2022-11-16T08:26:57.202Z,6.70
2022-11-16T08:29:44.114Z,4.07
2022-11-16T08:32:30.740Z,4.93
2022-11-16T08:35:17.901Z,5.43
2022-11-16T08:38:06.167Z,5.20
2022-11-16T08:40:52.927Z,4.43
2022-11-16T08:43:40.584Z,4.50
2022-11-16T08:46:27.843Z,4.50
2022-11-16T08:49:14.418Z,5.97
2022-11-16T08:52:01.115Z,5.27
2022-11-16T08:54:49.019Z,5.40
2022-11-16T08:57:35.984Z,5.50
2022-11-16T09:00:22.608Z,4.70
2022-11-16T09:03:09.403Z,4.73
2022-11-16T09:05:55.945Z,5.63
2022-11-16T09:08:44.346Z,8.00
2022-11-16T09:11:32.561Z,9.93
2022-11-16T09:14:19.336Z,8.50
2022-11-16T09:17:06.087Z,7.77
2022-11-16T09:19:53.029Z,6.30
2022-11-16T09:22:39.895Z,8.07
2022-11-16T09:25:26.562Z,10.13
2022-11-16T09:28:14.905Z,6.93
2022-11-16T09:31:04.059Z,7.53
2022-11-16T09:33:50.624Z,9.30
2022-11-16T09:36:37.252Z,10.80
2022-11-16T09:39:31.111Z,8.80
2022-11-16T09:42:34.284Z,10.70
2022-11-16T09:45:28.214Z,11.10
2022-11-16T09:48:17.031Z,8.60
2022-11-16T09:51:08.272Z,9.37
2022-11-16T09:53:59.245Z,8.70
2022-11-16T09:56:48.552Z,11.90
2022-11-16T09:59:41.789Z,10.87
2022-11-16T10:02:34.832Z,9.33
2022-11-16T10:05:25.575Z,13.93
2022-11-16T10:08:17.450Z,11.37
2022-11-16T10:11:11.579Z,11.50
2022-11-16T10:14:06.790Z,13.50
2022-11-16T10:16:58.138Z,10.87
2022-11-16T10:19:54.449Z,13.23
2022-11-16T10:22:48.154Z,12.87
2022-11-16T10:25:42.745Z,12.80
2022-11-16T10:28:56.620Z,13.77
2022-11-16T10:32:01.917Z,13.27
2022-11-16T10:34:53.462Z,14.30
2022-11-16T10:37:45.928Z,15.97
2022-11-16T10:40:38.407Z,15.27
2022-11-16T10:43:29.270Z,17.30
2022-11-16T10:46:21.993Z,15.47
2022-11-16T10:49:12.951Z,15.43
2022-11-16T10:52:01.205Z,15.47
2022-11-16T10:54:47.971Z,15.87
2022-11-16T10:57:56.574Z,17.37
2022-11-16T11:00:47.081Z,13.77
2022-11-16T11:03:34.195Z,16.07
2022-11-16T11:06:22.071Z,14.40
2022-11-16T11:09:23.618Z,16.27
2022-11-16T11:12:33.332Z,15.20
2022-11-16T11:15:26.805Z,17.30
2022-11-16T11:18:30.177Z,15.60
2022-11-16T11:21:20.193Z,17.40
2022-11-16T11:24:42.949Z,19.17
2022-11-16T11:27:27.699Z,17.40
2022-11-16T11:30:20.639Z,16.00
2022-11-16T11:33:12.244Z,17.07
2022-11-16T11:36:04.063Z,21.27
2022-11-16T11:39:03.422Z,16.23
2022-11-16T11:42:03.384Z,14.93
2022-11-16T11:44:57.289Z,20.67
2022-11-16T11:47:57.925Z,23.43
2022-11-16T11:50:50.826Z,17.13
2022-11-16T11:53:45.251Z,17.43
2022-11-16T11:56:34.202Z,17.20
2022-11-16T11:59:24.402Z,15.63
2022-11-16T12:02:29.822Z,18.63
2022-11-16T12:05:49.380Z,17.33
2022-11-16T12:08:48.977Z,17.73
2022-11-16T12:11:49.584Z,19.83
2022-11-16T12:14:59.602Z,19.70
2022-11-16T12:17:56.366Z,17.37
2022-11-16T12:20:51.161Z,17.07
2022-11-16T12:23:56.285Z,14.63
2022-11-16T12:26:53.859Z,16.37
2022-11-16T12:29:50.684Z,14.40
2022-11-16T12:32:51.909Z,18.53
2022-11-16T12:35:49.589Z,14.37
2022-11-16T12:38:53.058Z,17.17
2022-11-16T12:41:51.985Z,19.70
2022-11-16T12:45:00.557Z,18.17
2022-11-16T12:48:03.858Z,15.37
2022-11-16T12:51:01.586Z,15.37
2022-11-16T12:54:07.208Z,17.37
2022-11-16T12:56:59.399Z,17.27
2022-11-16T13:00:02.700Z,16.60
2022-11-16T13:03:05.190Z,17.27
2022-11-16T13:05:57.744Z,17.23
2022-11-16T13:08:53.411Z,17.43
2022-11-16T13:11:43.518Z,21.43
2022-11-16T13:14:34.943Z,20.33
2022-11-16T13:17:24.924Z,16.90
2022-11-16T13:20:26.310Z,18.87
2022-11-16T13:23:23.955Z,15.83
2022-11-16T13:26:20.826Z,16.27
2022-11-16T13:29:19.892Z,18.27
2022-11-16T13:32:13.795Z,17.17
2022-11-16T13:35:01.420Z,15.90
2022-11-16T13:37:51.723Z,16.23
2022-11-16T13:40:38.480Z,15.83
2022-11-16T13:43:25.216Z,14.73
2022-11-16T13:46:27.664Z,16.13
2022-11-16T13:49:28.386Z,13.57
2022-11-16T13:52:23.748Z,15.93
2022-11-16T13:55:25.674Z,13.97
2022-11-16T13:58:20.691Z,14.53
2022-11-16T14:01:10.826Z,14.23
2022-11-16T14:04:41.796Z,14.37
2022-11-16T14:07:37.596Z,13.67
2022-11-16T14:11:10.131Z,16.27
2022-11-16T14:14:00.044Z,15.40
2022-11-16T14:16:49.943Z,12.43
2022-11-16T14:19:56.035Z,14.40
2022-11-16T14:23:03.406Z,14.23
2022-11-16T14:25:54.191Z,14.73
2022-11-16T14:29:12.131Z,11.97
2022-11-16T14:32:02.117Z,13.40
2022-11-16T14:34:51.979Z,13.77
2022-11-16T14:37:41.491Z,12.40
2022-11-16T14:40:28.569Z,12.83
2022-11-16T14:43:21.681Z,14.47
2022-11-16T14:46:18.335Z,14.20
2022-11-16T14:49:05.650Z,15.10
2022-11-16T14:51:55.963Z,17.87
2022-11-16T14:54:47.674Z,16.47
2022-11-16T14:57:34.448Z,19.10
2022-11-16T15:00:24.931Z,17.07
2022-11-16T15:03:13.722Z,17.70
2022-11-16T15:06:02.930Z,14.93
2022-11-16T15:08:54.183Z,14.93
2022-11-16T15:12:00.688Z,14.60
2022-11-16T15:14:50.623Z,14.10
2022-11-16T15:17:38.173Z,13.87
2022-11-16T15:20:27.759Z,13.93
2022-11-16T15:23:16.203Z,14.23
2022-11-16T15:26:04.645Z,13.20
2022-11-16T15:28:52.407Z,14.47
2022-11-16T15:31:43.174Z,13.93
2022-11-16T15:34:29.744Z,14.40
2022-11-16T15:37:27.875Z,12.10
2022-11-16T15:40:14.953Z,12.90
2022-11-16T15:43:04.629Z,12.30
2022-11-16T15:45:51.877Z,13.13
2022-11-16T15:48:39.640Z,12.53
2022-11-16T15:51:28.116Z,13.13
2022-11-16T15:54:22.746Z,15.60
2022-11-16T15:57:13.165Z,14.73
2022-11-16T16:00:00.051Z,14.93
2022-11-16T16:02:46.502Z,19.37
2022-11-16T16:05:38.363Z,17.53
2022-11-16T16:08:28.739Z,16.70
2022-11-16T16:11:28.978Z,16.23
2022-11-16T16:14:24.719Z,16.77
2022-11-16T16:17:13.124Z,16.13
2022-11-16T16:20:02.064Z,18.73
2022-11-16T16:22:49.019Z,19.07
2022-11-16T16:25:37.170Z,16.10
2022-11-16T16:28:25.255Z,17.90
2022-11-16T16:31:12.612Z,16.17
2022-11-16T16:33:59.559Z,23.17
2022-11-16T16:36:46.179Z,20.17
2022-11-16T16:39:36.069Z,18.50
2022-11-16T16:42:22.780Z,16.57
2022-11-16T16:45:15.428Z,18.80
2022-11-16T16:48:02.090Z,22.30
2022-11-16T16:50:48.932Z,15.90
2022-11-16T16:53:36.639Z,19.67
2022-11-16T16:56:23.393Z,17.17
2022-11-16T16:59:10.227Z,16.90
2022-11-16T17:01:58.642Z,16.37
2022-11-16T17:04:46.864Z,17.63
2022-11-16T17:07:33.403Z,19.07
2022-11-16T17:10:19.982Z,17.97
2022-11-16T17:13:06.271Z,16.57
2022-11-16T17:15:52.590Z,16.57
2022-11-16T17:18:40.493Z,19.73
2022-11-16T17:21:27.367Z,18.17
2022-11-16T17:24:13.755Z,15.00
2022-11-16T17:27:00.328Z,16.80
2022-11-16T17:29:46.850Z,15.70
2022-11-16T17:32:33.324Z,17.87
2022-11-16T17:35:21.318Z,16.70
2022-11-16T17:38:09.780Z,19.07
2022-11-16T17:41:04.899Z,18.17
2022-11-16T17:43:54.053Z,16.13
2022-11-16T17:46:40.565Z,17.00
2022-11-16T17:49:27.242Z,17.67
2022-11-16T17:52:15.179Z,17.17
2022-11-16T17:55:01.907Z,15.97
2022-11-16T17:57:48.990Z,17.27
2022-11-16T18:00:35.883Z,16.93
2022-11-16T18:03:24.029Z,16.10
2022-11-16T18:06:13.477Z,17.70
2022-11-16T18:09:01.869Z,16.73
2022-11-16T18:11:48.455Z,17.73
2022-11-16T18:14:35.012Z,19.00
2022-11-16T18:17:21.670Z,20.30
2022-11-16T18:20:09.579Z,15.97
2022-11-16T18:22:56.887Z,17.17
2022-11-16T18:25:44.878Z,18.13
2022-11-16T18:28:31.642Z,17.87
2022-11-16T18:31:19.713Z,16.73
2022-11-16T18:34:06.254Z,17.37
2022-11-16T18:36:52.759Z,15.57
2022-11-16T18:39:39.290Z,19.33
2022-11-16T18:42:27.213Z,17.73
2022-11-16T18:45:13.921Z,17.00
2022-11-16T18:48:00.604Z,15.97
2022-11-16T18:50:47.147Z,18.87
2022-11-16T18:53:34.141Z,18.47
2022-11-16T18:56:21.324Z,16.77
2022-11-16T18:59:09.468Z,16.40
2022-11-16T19:01:56.260Z,20.23
2022-11-16T19:04:42.789Z,18.20
2022-11-16T19:07:29.286Z,18.83
2022-11-16T19:10:16.406Z,21.23
2022-11-16T19:13:04.819Z,18.03
2022-11-16T19:15:56.665Z,19.10
2022-11-16T19:18:43.437Z,16.30
2022-11-16T19:21:30.264Z,17.60
2022-11-16T19:24:16.962Z,20.80
2022-11-16T19:27:03.398Z,18.03
2022-11-16T19:29:49.859Z,20.27
2022-11-16T19:32:37.620Z,18.63
2022-11-16T19:35:24.845Z,22.37
2022-11-16T19:38:11.310Z,19.53
2022-11-16T19:40:57.727Z,18.57
2022-11-16T19:43:44.856Z,19.53
2022-11-16T19:46:33.301Z,19.77
2022-11-16T19:49:23.364Z,19.80
2022-11-16T19:52:10.431Z,17.57
2022-11-16T19:54:57.020Z,17.60
2022-11-16T19:57:43.801Z,17.03
2022-11-16T20:00:30.489Z,20.23
2022-11-16T20:03:17.378Z,18.93
2022-11-16T20:06:11.062Z,16.97
2022-11-16T20:09:00.644Z,17.33
2022-11-16T20:11:47.388Z,17.50
2022-11-16T20:14:33.949Z,16.10
2022-11-16T20:17:20.896Z,15.90
2022-11-16T20:20:08.226Z,18.97
2022-11-16T20:22:55.973Z,14.27
2022-11-16T20:25:42.795Z,17.80
2022-11-16T20:28:29.399Z,16.70
2022-11-16T20:31:17.210Z,16.30
2022-11-16T20:34:07.752Z,16.73
2022-11-16T20:36:54.614Z,14.77
2022-11-16T20:39:42.959Z,13.60
2022-11-16T20:42:29.705Z,18.20
2022-11-16T20:45:16.987Z,16.83
2022-11-16T20:48:04.301Z,21.17
2022-11-16T20:50:54.792Z,14.50
2022-11-16T20:53:41.333Z,14.83
2022-11-16T20:56:29.817Z,15.30
2022-11-16T20:59:16.445Z,12.73
2022-11-16T21:02:03.086Z,13.03
2022-11-16T21:04:49.492Z,14.87
2022-11-16T21:07:36.206Z,13.00
2022-11-16T21:10:23.371Z,11.47
2022-11-16T21:13:31.971Z,12.50
2022-11-16T21:16:18.807Z,13.50
2022-11-16T21:19:05.796Z,9.30
2022-11-16T21:21:52.375Z,10.33
2022-11-16T21:24:39.054Z,9.33
2022-11-16T21:27:25.775Z,8.73
2022-11-16T21:30:15.455Z,7.87
2022-11-16T21:33:02.213Z,7.37
2022-11-16T21:35:48.667Z,6.83
2022-11-16T21:38:35.831Z,9.20
2022-11-16T21:41:23.769Z,6.87
2022-11-16T21:44:10.276Z,7.73
2022-11-16T21:46:58.055Z,8.60
2022-11-16T21:50:09.773Z,5.90
2022-11-16T21:52:51.465Z,8.43
2022-11-16T21:55:38.151Z,6.60
2022-11-16T21:58:24.949Z,6.07
2022-11-16T22:01:12.774Z,6.77
2022-11-16T22:04:18.219Z,6.33
2022-11-16T22:07:22.293Z,6.73
2022-11-16T22:10:11.161Z,8.07
2022-11-16T22:12:57.969Z,8.70
2022-11-16T22:15:44.572Z,5.87
2022-11-16T22:18:32.899Z,9.63
2022-11-16T22:21:20.890Z,6.10
2022-11-16T22:24:08.406Z,6.60
2022-11-16T22:26:55.277Z,8.70
2022-11-16T22:29:41.779Z,7.50
2022-11-16T22:32:28.324Z,7.10
2022-11-16T22:35:14.859Z,6.93
2022-11-16T22:38:03.670Z,7.37
2022-11-16T22:40:52.090Z,7.00
2022-11-16T22:43:39.352Z,8.37
2022-11-16T22:46:26.250Z,7.63
2022-11-16T22:49:12.674Z,6.73
2022-11-16T22:51:59.127Z,7.17
2022-11-16T22:54:46.955Z,10.07
2022-11-16T22:57:33.705Z,9.77
2022-11-16T23:00:20.622Z,8.07
2022-11-16T23:03:07.165Z,7.53
2022-11-16T23:05:53.623Z,7.37
2022-11-16T23:08:41.129Z,8.67
2022-11-16T23:11:47.159Z,7.90
2022-11-16T23:14:51.261Z,9.00
2022-11-16T23:17:37.851Z,10.50
2022-11-16T23:20:42.063Z,7.30
2022-11-16T23:23:46.195Z,9.10
2022-11-16T23:26:51.754Z,7.87
2022-11-16T23:29:38.429Z,9.13
2022-11-16T23:32:25.211Z,6.67
2022-11-16T23:35:12.110Z,7.63
2022-11-16T23:38:00.427Z,8.13
2022-11-16T23:40:46.806Z,7.33
2022-11-16T23:43:52.221Z,7.43
2022-11-16T23:46:39.070Z,8.60
2022-11-16T23:49:25.533Z,10.97
2022-11-16T23:52:12.479Z,7.27
2022-11-16T23:54:58.989Z,6.57
2022-11-16T23:57:45.440Z,7.77
